Time;durP1;ratioP1;P1;durP2;ratioP2;P2;SDS_P1;SDS_P2;PMS_P1;PMS_P2;Temp;Humidity;BMP_temperature;BMP_pressure;BME280_temperature;BME280_humidity;BME280_pressure;Samples;Min_cycle;Max_cycle;Signal;HPM_P1;HPM_P2
2023/10/15 00:01:42;;;;;;;7.90;3.55;;;;;;;;;;5034430;28;20115;-85
2023/10/15 00:04:08;;;;;;;4.05;2.03;;;;;;;;;;5030597;28;20033;-84
2023/10/15 00:06:34;;;;;;;6.50;2.03;;;;;;;;;;5037296;28;20037;-84
2023/10/15 00:09:01;;;;;;;4.43;2.00;;;;;;;;;;5034000;28;20021;-84
2023/10/15 00:11:27;;;;;;;3.30;1.10;;;;;;;;;;5036103;28;20021;-85
2023/10/15 00:13:53;;;;;;;5.20;1.50;;;;;;;;;;5032787;28;20040;-84
2023/10/15 00:16:20;;;;;;;2.70;1.60;;;6.20;99.90;;;;;;5030420;28;20029;-84
2023/10/15 00:18:46;;;;;;;3.60;1.13;;;;;;;;;;5031017;28;20422;-84
2023/10/15 00:21:12;;;;;;;1.88;1.00;;;;;;;;;;5032971;28;20417;-85
2023/10/15 00:23:43;;;;;;;3.75;1.60;;;;;;;;;;5033502;28;20053;-85
2023/10/15 00:26:12;;;;;;;3.22;1.23;;;;;;;;;;5038686;28;20033;-84
2023/10/15 00:28:38;;;;;;;2.70;1.60;;;6.30;99.90;;;;;;5028223;28;20083;-84
2023/10/15 00:31:10;;;;;;;3.20;1.33;;;;;;;;;;5030220;28;20041;-84
2023/10/15 00:33:37;;;;;;;3.60;1.58;;;;;;;;;;5036520;28;20024;-84
2023/10/15 00:36:06;;;;;;;4.20;1.85;;;;;;;;;;5033280;28;20024;-84
2023/10/15 00:38:36;;;;;;;6.15;2.33;;;;;;;;;;5037066;28;20056;-84
2023/10/15 00:41:08;;;;;;;3.58;1.65;;;;;;;;;;5036090;28;20570;-85
2023/10/15 00:43:34;;;;;;;4.65;2.15;;;;;;;;;;5036454;28;20025;-83
2023/10/15 00:46:03;;;;;;;6.28;1.70;;;5.90;99.90;;;;;;5035213;28;20021;-83
2023/10/15 00:48:33;;;;;;;3.83;1.98;;;;;;;;;;5035488;28;20025;-85
2023/10/15 00:51:00;;;;;;;3.90;1.85;;;;;;;;;;5032334;28;20115;-84
2023/10/15 00:53:27;;;;;;;3.10;1.33;;;6.30;99.90;;;;;;5038647;28;20037;-84
2023/10/15 00:55:55;;;;;;;4.05;1.38;;;6.00;99.90;;;;;;5037063;28;20047;-83
2023/10/15 01:04:00;;;;;;;3.33;1.55;;;;;;;;;;5023553;28;20048;-84
2023/10/15 01:09:17;;;;;;;4.90;1.45;;;6.20;99.90;;;;;;5037956;28;20075;-84
2023/10/15 01:11:44;;;;;;;3.08;1.42;;;5.90;99.90;;;;;;5038134;28;20033;-84
2023/10/15 01:14:13;;;;;;;4.60;1.20;;;;;;;;;;5038928;28;20125;-84
2023/10/15 01:16:40;;;;;;;2.58;1.40;;;6.10;99.90;;;;;;5036522;28;20083;-84
2023/10/15 01:21:58;;;;;;;2.17;1.08;;;5.90;99.90;;;;;;5034399;28;20066;-83
2023/10/15 01:24:27;;;;;;;11.07;1.00;;;5.50;99.90;;;;;;5041267;28;20172;-83
2023/10/15 01:27:07;;;;;;;6.55;1.48;;;5.50;99.90;;;;;;5035814;28;20029;-84
2023/10/15 01:29:34;;;;;;;1.58;1.00;;;;;;;;;;5034414;28;20029;-83
2023/10/15 01:32:02;;;;;;;4.07;1.70;;;;;;;;;;5062825;28;20029;-86
2023/10/15 01:34:29;;;;;;;2.85;1.38;;;;;;;;;;5040595;28;20575;-85
2023/10/15 01:36:57;;;;;;;4.28;1.55;;;;;;;;;;5040338;28;20025;-84
2023/10/15 01:39:32;;;;;;;3.83;1.50;;;5.30;99.90;;;;;;5044009;28;20021;-85
2023/10/15 01:42:04;;;;;;;4.25;1.67;;;;;;;;;;5042973;28;20513;-85
2023/10/15 01:44:30;;;;;;;4.47;1.92;;;;;;;;;;5041354;28;20025;-85
2023/10/15 01:49:32;;;;;;;4.55;1.17;;;;;;;;;;5036748;28;20049;-84
2023/10/15 01:52:08;;;;;;;2.67;1.30;;;5.40;99.90;;;;;;5032123;28;20025;-84
2023/10/15 01:54:35;;;;;;;7.68;1.73;;;;;;;;;;5036782;28;20856;-84
2023/10/15 01:57:07;;;;;;;2.80;1.30;;;5.70;99.90;;;;;;5038558;28;20048;-84
2023/10/15 01:59:45;;;;;;;2.40;1.43;;;5.40;99.90;;;;;;5021994;28;20029;-84
2023/10/15 02:02:17;;;;;;;2.80;1.33;;;5.30;99.90;;;;;;5028682;28;20048;-84
2023/10/15 02:04:46;;;;;;;3.13;1.53;;;5.40;99.90;;;;;;5037210;28;20092;-84
2023/10/15 02:07:14;;;;;;;8.70;1.08;;;;;;;;;;5033164;28;20331;-84
2023/10/15 02:09:43;;;;;;;2.08;1.20;;;5.50;99.90;;;;;;5033731;28;20045;-83
2023/10/15 02:12:09;;;;;;;3.50;1.25;;;;;;;;;;5036983;28;20126;-84
2023/10/15 02:14:36;;;;;;;4.40;1.83;;;;;;;;;;5035447;28;20037;-84
2023/10/15 02:17:05;;;;;;;2.67;1.30;;;;;;;;;;5028745;28;20121;-84
2023/10/15 02:22:00;;;;;;;2.88;0.88;;;;;;;;;;5032200;28;20056;-85
2023/10/15 02:24:26;;;;;;;7.07;1.40;;;;;;;;;;5029980;28;20030;-84
2023/10/15 02:26:51;;;;;;;2.08;1.05;;;;;;;;;;5031472;28;20082;-84
2023/10/15 02:29:34;;;;;;;2.53;1.65;;;5.40;99.90;;;;;;5036652;28;20021;-85
2023/10/15 02:32:28;;;;;;;1.52;0.98;;;;;;;;;;5036987;28;20045;-84
2023/10/15 02:34:50;;;;;;;6.78;1.55;;;5.70;99.90;;;;;;5031623;28;20132;-84
2023/10/15 02:37:23;;;;;;;3.75;1.63;;;5.40;99.90;;;;;;5031281;28;20029;-84
2023/10/15 02:39:52;;;;;;;4.13;1.77;;;;;;;;;;5034632;28;20032;-85
2023/10/15 02:42:19;;;;;;;2.80;1.23;;;5.50;99.90;;;;;;5035101;28;20033;-84
2023/10/15 02:44:52;;;;;;;2.35;1.40;;;5.40;99.90;;;;;;5031361;28;20032;-83
2023/10/15 02:50:03;;;;;;;3.92;1.65;;;5.60;99.90;;;;;;5032047;28;20047;-84
2023/10/15 02:52:35;;;;;;;7.60;1.63;;;6.00;99.90;;;;;;5042210;28;20056;-84
2023/10/15 02:55:09;;;;;;;4.03;1.73;;;5.30;99.90;;;;;;5034982;28;20041;-84
2023/10/15 02:57:41;;;;;;;6.78;2.00;;;5.60;99.90;;;;;;5029742;28;20987;-84
2023/10/15 03:00:28;;;;;;;4.65;1.40;;;5.80;99.90;;;;;;5033623;28;20279;-84
2023/10/15 03:02:58;;;;;;;4.57;1.40;;;5.40;99.90;;;;;;5031220;28;20572;-84
2023/10/15 03:05:30;;;;;;;5.10;1.52;;;;;;;;;;5037927;28;20545;-84
2023/10/15 03:07:59;;;;;;;3.87;1.43;;;5.50;99.90;;;;;;5037798;28;20044;-84
2023/10/15 03:10:45;;;;;;;3.08;1.00;;;5.50;99.90;;;;;;5031863;28;20033;-84
2023/10/15 03:13:14;;;;;;;2.35;1.60;;;5.90;99.90;;;;;;5033214;28;20033;-84
2023/10/15 03:15:48;;;;;;;2.38;1.33;;;5.70;99.90;;;;;;5025745;28;20033;-84
2023/10/15 03:18:23;;;;;;;3.33;1.30;;;5.60;99.90;;;;;;5037656;28;20436;-84
2023/10/15 03:20:49;;;;;;;1.02;0.93;;;6.00;99.90;;;;;;5035733;28;20018;-83
2023/10/15 03:23:18;;;;;;;3.55;1.77;;;5.60;99.90;;;;;;5038362;28;20079;-84
2023/10/15 03:25:48;;;;;;;5.00;2.28;;;;;;;;;;5037052;28;20045;-84
2023/10/15 03:28:14;;;;;;;1.92;1.02;;;;;;;;;;5036161;28;20507;-84
2023/10/15 03:30:44;;;;;;;3.03;1.55;;;6.00;99.90;;;;;;5032426;28;20136;-82
2023/10/15 03:33:11;;;;;;;11.88;1.50;;;6.20;99.90;;;;;;5037065;28;20031;-83
2023/10/15 03:35:39;;;;;;;2.90;1.52;;;6.30;99.90;;;;;;5025960;28;20470;-83
2023/10/15 03:38:14;;;;;;;5.28;1.70;;;;;;;;;;5048898;28;20510;-83
2023/10/15 03:40:44;;;;;;;3.80;1.20;;;;;;;;;;5029573;28;20047;-83
2023/10/15 03:43:16;;;;;;;4.78;1.60;;;6.40;99.90;;;;;;5029977;28;20029;-83
2023/10/15 03:45:52;;;;;;;2.30;1.20;;;;;;;;;;5027755;28;20029;-83
2023/10/15 03:48:22;;;;;;;2.92;1.35;;;6.10;99.90;;;;;;5034909;28;20148;-83
2023/10/15 03:50:53;;;;;;;3.78;1.77;;;5.90;99.90;;;;;;5036823;28;20037;-83
2023/10/15 03:53:21;;;;;;;2.83;1.05;;;6.40;99.90;;;;;;5036015;28;20025;-84
2023/10/15 03:55:49;;;;;;;2.75;1.20;;;;;;;;;;5038004;28;20063;-84
2023/10/15 03:58:15;;;;;;;2.65;1.45;;;;;;;;;;5060237;28;20016;-84
2023/10/15 04:00:46;;;;;;;4.30;1.83;;;;;;;;;;5034026;28;20036;-84
2023/10/15 04:03:22;;;;;;;2.20;1.08;;;;;;;;;;5018475;28;20049;-84
2023/10/15 04:06:05;;;;;;;4.78;1.20;;;6.60;99.90;;;;;;5027778;28;20514;-84
2023/10/15 04:08:31;;;;;;;2.05;1.67;;;;;;;;;;5017664;28;20041;-84
2023/10/15 04:10:58;;;;;;;3.60;1.48;;;6.40;99.90;;;;;;5015688;28;20060;-84
2023/10/15 04:13:26;;;;;;;3.28;1.80;;;;;;;;;;5022196;28;20037;-84
2023/10/15 04:15:52;;;;;;;3.10;1.27;;;;;;;;;;5031520;28;20553;-84
2023/10/15 04:18:18;;;;;;;3.10;1.05;;;;;;;;;;5043171;28;20016;-84
2023/10/15 04:20:44;;;;;;;3.42;1.45;;;;;;;;;;5041707;28;20117;-84
2023/10/15 04:23:13;;;;;;;4.15;1.50;;;;;;;;;;5027877;28;20607;-83
2023/10/15 04:25:39;;;;;;;3.08;1.35;;;;;;;;;;5034219;28;20021;-84
2023/10/15 04:28:14;;;;;;;3.15;1.52;;;;;;;;;;5041163;28;20037;-84
2023/10/15 04:30:40;;;;;;;8.98;1.67;;;;;;;;;;5042642;28;20142;-84
2023/10/15 04:33:18;;;;;;;2.63;1.23;;;6.50;99.90;;;;;;5045524;28;20037;-84
2023/10/15 04:35:43;;;;;;;6.40;1.10;;;6.40;99.90;;;;;;5034902;28;20116;-83
2023/10/15 04:38:15;;;;;;;1.63;0.95;;;6.40;99.90;;;;;;5030070;28;20027;-83
2023/10/15 04:41:21;;;;;;;8.88;1.77;;;;;;;;;;5038972;28;20032;-83
2023/10/15 04:43:45;;;;;;;4.25;1.20;;;6.30;99.90;;;;;;5041819;28;20056;-83
2023/10/15 04:46:17;;;;;;;5.05;1.67;;;;;;;;;;5047214;28;20048;-84
2023/10/15 04:48:45;;;;;;;5.75;0.90;;;;;;;;;;5025970;28;20037;-84
2023/10/15 04:51:12;;;;;;;2.70;1.05;;;6.80;99.90;;;;;;5039818;28;20036;-83
2023/10/15 04:53:42;;;;;;;2.47;1.92;;;;;;;;;;5037342;28;20037;-84
2023/10/15 04:56:08;;;;;;;5.97;1.23;;;;;;;;;;5036067;28;20062;-83
2023/10/15 04:58:34;;;;;;;2.17;1.27;;;;;;;;;;5036107;28;20025;-83
2023/10/15 05:01:01;;;;;;;8.93;1.58;;;;;;;;;;5037111;28;20040;-83
2023/10/15 05:03:27;;;;;;;3.25;1.35;;;;;;;;;;5040906;28;20600;-83
2023/10/15 05:05:55;;;;;;;2.67;1.13;;;;;;;;;;5039812;28;20033;-83
2023/10/15 05:08:24;;;;;;;1.95;1.10;;;6.50;99.90;;;;;;5020696;28;20556;-83
2023/10/15 05:10:50;;;;;;;2.92;1.05;;;6.60;99.90;;;;;;5028584;28;20021;-84
2023/10/15 05:13:17;;;;;;;3.20;1.38;;;6.60;99.90;;;;;;5034518;28;20690;-84
2023/10/15 05:15:49;;;;;;;4.35;1.50;;;6.70;99.90;;;;;;5038976;28;20078;-83
2023/10/15 05:18:15;;;;;;;2.72;1.45;;;6.70;99.90;;;;;;5044768;28;20540;-84
2023/10/15 05:20:45;;;;;;;3.13;1.15;;;6.70;99.90;;;;;;5041270;28;20398;-84
2023/10/15 05:23:11;;;;;;;7.88;1.90;;;6.70;99.90;;;;;;5035179;28;20079;-83
2023/10/15 05:25:39;;;;;;;6.65;1.27;;;6.70;99.90;;;;;;5041421;28;20033;-84
2023/10/15 05:28:05;;;;;;;5.55;1.13;;;;;;;;;;5042217;28;20036;-84
2023/10/15 05:30:31;;;;;;;2.65;1.17;;;6.80;99.90;;;;;;5044385;28;20063;-83
2023/10/15 05:33:00;;;;;;;4.55;1.45;;;6.60;99.90;;;;;;5026199;28;20117;-84
2023/10/15 05:35:27;;;;;;;4.20;2.22;;;;;;;;;;5024372;28;20062;-83
2023/10/15 05:37:55;;;;;;;5.50;1.92;;;;;;;;;;5022539;28;20029;-84
2023/10/15 05:40:24;;;;;;;2.83;1.30;;;6.70;99.90;;;;;;5015011;28;20645;-85
2023/10/15 05:42:51;;;;;;;3.10;1.48;;;;;;;;;;5027323;28;20029;-84
2023/10/15 05:45:18;;;;;;;4.57;1.10;;;6.80;99.90;;;;;;5026355;28;20029;-84
2023/10/15 05:47:43;;;;;;;3.92;1.67;;;;;;;;;;5033910;28;20032;-84
2023/10/15 05:50:12;;;;;;;1.65;0.73;;;6.80;99.90;;;;;;5028199;28;20036;-84
2023/10/15 05:52:38;;;;;;;3.47;1.40;;;;;;;;;;5029509;28;20021;-83
2023/10/15 05:55:06;;;;;;;4.82;1.27;;;6.80;99.90;;;;;;5027420;28;20638;-83
2023/10/15 05:57:33;;;;;;;2.42;1.15;;;;;;;;;;5035198;28;20025;-84
2023/10/15 06:00:17;;;;;;;2.75;1.35;;;;;;;;;;5022971;28;20120;-83
2023/10/15 06:02:43;;;;;;;8.68;1.92;;;;;;;;;;5037382;28;20362;-84
2023/10/15 06:05:09;;;;;;;3.70;1.05;;;6.90;99.90;;;;;;5029702;28;20072;-84
2023/10/15 06:07:35;;;;;;;3.83;1.48;;;;;;;;;;5019621;28;20041;-84
2023/10/15 06:10:00;;;;;;;9.18;1.58;;;;;;;;;;5017226;28;20658;-84
2023/10/15 06:12:26;;;;;;;2.90;1.20;;;;;;;;;;5031041;28;20263;-84
2023/10/15 06:14:52;;;;;;;16.20;1.35;;;;;;;;;;5029720;28;20032;-84
2023/10/15 06:17:18;;;;;;;2.38;1.23;;;;;;;;;;5027966;28;20052;-84
2023/10/15 06:19:46;;;;;;;3.40;1.20;;;7.00;99.90;;;;;;5021649;28;20615;-84
2023/10/15 06:22:12;;;;;;;2.55;0.98;;;;;;;;;;5033353;28;20044;-84
2023/10/15 06:24:37;;;;;;;1.40;0.85;;;7.10;99.90;;;;;;5052320;28;20055;-84
2023/10/15 06:27:04;;;;;;;4.80;1.33;;;;;;;;;;5036843;28;20504;-84
2023/10/15 06:29:29;;;;;;;2.58;1.00;;;7.30;99.90;;;;;;5027981;28;20116;-84
2023/10/15 06:31:55;;;;;;;2.13;1.05;;;7.20;99.90;;;;;;5026728;28;20035;-85
2023/10/15 06:34:21;;;;;;;3.85;1.00;;;7.00;99.90;;;;;;5023075;28;20025;-84
2023/10/15 06:36:47;;;;;;;2.17;1.20;;;7.60;99.90;;;;;;5015687;28;20032;-84
2023/10/15 06:39:14;;;;;;;3.45;1.20;;;;;;;;;;5026019;28;20043;-84
2023/10/15 06:41:40;;;;;;;2.92;1.15;;;;;;;;;;5009137;28;20472;-85
2023/10/15 06:44:08;;;;;;;2.85;1.52;;;;;;;;;;5024486;28;20025;-84
2023/10/15 06:46:34;;;;;;;4.00;1.70;;;;;;;;;;5030300;28;20097;-84
2023/10/15 06:49:00;;;;;;;3.17;1.67;;;;;;;;;;5022398;28;20043;-84
2023/10/15 06:51:27;;;;;;;3.15;1.77;;;;;;;;;;5028755;28;20037;-84
2023/10/15 06:53:53;;;;;;;3.67;1.83;;;;;;;;;;5026436;28;20379;-84
2023/10/15 06:56:19;;;;;;;4.10;1.13;;;;;;;;;;5028824;28;20029;-84
2023/10/15 06:58:46;;;;;;;2.38;1.38;;;;;;;;;;5036585;28;20392;-84
2023/10/15 07:01:12;;;;;;;3.10;1.35;;;;;;;;;;5035249;28;20017;-84
2023/10/15 07:03:38;;;;;;;3.22;1.92;;;;;;;;;;5036086;28;20025;-85
2023/10/15 07:06:04;;;;;;;1.92;0.88;;;;;;;;;;5035834;28;20512;-85
2023/10/15 07:08:30;;;;;;;2.15;1.20;;;;;;;;;;5028677;28;20040;-85
2023/10/15 07:10:59;;;;;;;2.22;1.10;;;;;;;;;;5025009;28;20039;-84
2023/10/15 07:13:25;;;;;;;4.43;1.00;;;;;;;;;;5024515;28;20078;-84
2023/10/15 07:15:50;;;;;;;2.03;1.08;;;;;;;;;;5028777;28;20606;-85
2023/10/15 07:18:16;;;;;;;3.33;1.48;;;;;;;;;;5024239;28;20057;-84
2023/10/15 07:20:42;;;;;;;5.85;1.73;;;;;;;;;;5015513;28;20056;-84
2023/10/15 07:23:09;;;;;;;3.38;1.70;;;;;;;;;;5018151;28;20024;-84
2023/10/15 07:25:35;;;;;;;4.13;0.98;;;;;;;;;;5038512;28;20591;-84
2023/10/15 07:28:01;;;;;;;2.92;1.55;;;;;;;;;;5025849;28;20060;-84
2023/10/15 07:30:28;;;;;;;3.03;1.50;;;;;;;;;;5017646;28;20060;-83
2023/10/15 07:32:57;;;;;;;3.80;1.85;;;;;;;;;;5015928;28;21313;-84
2023/10/15 07:35:25;;;;;;;5.65;2.22;;;;;;;;;;5002821;28;20039;-83
2023/10/15 07:37:51;;;;;;;11.63;2.35;;;;;;;;;;5037900;28;20510;-84
2023/10/15 07:40:18;;;;;;;9.52;2.97;;;8.90;99.90;;;;;;5017971;28;20033;-84
2023/10/15 07:42:44;;;;;;;4.88;2.67;;;;;;;;;;5033987;28;20031;-84
2023/10/15 07:45:11;;;;;;;6.72;3.17;;;;;;;;;;5023801;28;20076;-85
2023/10/15 07:47:37;;;;;;;7.28;2.30;;;;;;;;;;5024594;28;20053;-85
2023/10/15 07:50:04;;;;;;;4.18;2.05;;;;;;;;;;5020258;28;20405;-84
2023/10/15 07:52:30;;;;;;;5.38;1.63;;;;;;;;;;5017139;28;24012;-84
2023/10/15 07:54:56;;;;;;;15.65;2.63;;;;;;;;;;5031779;28;20036;-85
2023/10/15 07:57:22;;;;;;;9.40;1.98;;;;;;;;;;5026789;28;20022;-85
2023/10/15 07:59:48;;;;;;;4.90;2.47;;;;;;;;;;5022868;28;20109;-84
2023/10/15 08:02:15;;;;;;;7.97;2.00;;;;;;;;;;5028279;28;21495;-86
2023/10/15 08:04:42;;;;;;;8.07;1.25;;;;;;;;;;5034449;28;20052;-85
2023/10/15 08:07:08;;;;;;;8.13;1.90;;;;;;;;;;5012997;28;20036;-85
2023/10/15 08:09:34;;;;;;;3.63;1.42;;;;;;;;;;5029123;28;20413;-85
2023/10/15 08:12:00;;;;;;;2.05;1.05;;;;;;;;;;5041158;28;20033;-85
2023/10/15 08:14:26;;;;;;;3.38;1.08;;;;;;;;;;5031969;28;20025;-86
2023/10/15 08:16:52;;;;;;;1.98;0.82;;;;;;;;;;5040335;28;20029;-85
2023/10/15 08:19:18;;;;;;;5.32;1.27;;;;;;;;;;5034535;28;20032;-86
2023/10/15 08:21:44;;;;;;;4.13;1.05;;;;;;;;;;5023445;28;20065;-86
2023/10/15 08:24:10;;;;;;;2.33;0.90;;;;;;;;;;5026650;28;20029;-85
2023/10/15 08:26:37;;;;;;;5.13;1.70;;;;;;;;;;5028931;28;20041;-85
2023/10/15 08:29:03;;;;;;;4.63;1.25;;;;;;;;;;5025709;28;20082;-86
2023/10/15 08:31:29;;;;;;;1.90;0.60;;;;;;;;;;5036645;28;20420;-89
2023/10/15 08:33:55;;;;;;;2.92;0.50;;;;;;;;;;5022203;28;20067;-82
2023/10/15 08:36:21;;;;;;;1.45;0.60;;;;;;;;;;5021942;28;20025;-84
2023/10/15 08:38:49;;;;;;;5.38;1.20;;;;;;;;;;5023881;28;20044;-84
2023/10/15 08:41:16;;;;;;;3.95;0.80;;;;;;;;;;5020335;28;20352;-85
2023/10/15 08:43:46;;;;;;;7.70;0.95;;;12.90;99.90;;;;;;5030141;28;20068;-86
2023/10/15 08:46:12;;;;;;;5.53;0.85;;;;;;;;;;5034260;28;20037;-85
2023/10/15 08:48:41;;;;;;;4.22;0.93;;;;;;;;;;5041673;28;20045;-85
2023/10/15 08:51:09;;;;;;;2.78;0.80;;;;;;;;;;5036352;28;20038;-85
2023/10/15 08:53:35;;;;;;;6.22;0.98;;;;;;;;;;5038450;28;20057;-85
2023/10/15 08:56:01;;;;;;;5.05;1.10;;;;;;;;;;5033604;28;20028;-85
2023/10/15 08:58:28;;;;;;;3.78;1.02;;;;;;;;;;5021585;28;20014;-86
2023/10/15 09:01:00;;;;;;;1.70;0.80;;;;;;;;;;5030078;28;20375;-86
2023/10/15 09:03:26;;;;;;;5.43;0.95;;;;;;;;;;5033247;28;20021;-86
2023/10/15 09:05:52;;;;;;;4.00;1.00;;;;;;;;;;5039048;28;20037;-86
2023/10/15 09:08:20;;;;;;;6.35;1.65;;;;;;;;;;5063678;28;20042;-85
2023/10/15 09:10:46;;;;;;;5.10;1.33;;;;;;;;;;5057778;28;20022;-86
2023/10/15 09:13:15;;;;;;;3.25;1.05;;;;;;;;;;5027394;28;20030;-86
2023/10/15 09:15:43;;;;;;;4.22;1.27;;;;;;;;;;5029770;28;20071;-86
2023/10/15 09:18:15;;;;;;;2.15;1.27;;;;;;;;;;5027264;28;20029;-86
2023/10/15 09:20:42;;;;;;;7.00;0.90;;;;;;;;;;5036057;28;20025;-84
2023/10/15 09:23:09;;;;;;;1.67;0.50;;;;;;;;;;5035894;28;20040;-86
2023/10/15 09:25:35;;;;;;;1.70;0.40;;;;;;;;;;5035807;28;20041;-87
2023/10/15 09:28:02;;;;;;;12.90;0.82;;;;;;;;;;5029395;28;20036;-86
2023/10/15 09:30:30;;;;;;;5.38;0.90;;;;;;;;;;5033906;28;20029;-86
2023/10/15 09:32:59;;;;;;;4.78;0.82;;;;;;;;;;5039936;28;20032;-86
2023/10/15 09:35:25;;;;;;;1.10;0.60;;;;;;;;;;5040260;28;20088;-86
2023/10/15 09:37:54;;;;;;;0.65;0.30;;;;;;;;;;5039355;28;20558;-86
2023/10/15 09:40:20;;;;;;;6.03;0.65;;;;;;;;;;5031383;28;20071;-86
2023/10/15 09:42:49;;;;;;;2.88;0.80;;;;;;;;;;5029014;28;20612;-85
2023/10/15 09:45:18;;;;;;;1.50;0.88;;;;;;;;;;5037999;28;20068;-87
2023/10/15 09:47:48;;;;;;;3.10;0.38;;;;;;;;;;5041870;28;20065;-86
2023/10/15 09:50:19;;;;;;;8.55;1.00;;;12.90;99.90;;;;;;5026438;28;20075;-86
2023/10/15 09:52:54;;;;;;;7.57;2.25;;;;;;;;;;5051487;28;20041;-86
2023/10/15 09:55:23;;;;;;;1.08;0.35;;;;;;;;;;5035458;28;20029;-86
2023/10/15 09:57:50;;;;;;;3.55;1.25;;;;;;;;;;5040329;28;20035;-87
2023/10/15 10:00:20;;;;;;;3.15;0.40;;;;;;;;;;5038357;28;20067;-86
2023/10/15 10:02:52;;;;;;;2.70;0.22;;;;;;;;;;5040916;28;20192;-86
2023/10/15 10:05:44;;;;;;;3.88;0.52;;;;;;;;;;5029672;28;20030;-87
2023/10/15 10:08:22;;;;;;;3.95;0.40;;;;;;;;;;5030403;28;20102;-86
2023/10/15 10:11:14;;;;;;;1.50;0.32;;;12.50;99.90;;;;;;5035526;28;20116;-86
2023/10/15 10:14:03;;;;;;;3.85;0.93;;;;;;;;;;5033880;28;20053;-86
2023/10/15 10:16:30;;;;;;;4.90;0.43;;;;;;;;;;5028584;28;20037;-87
2023/10/15 10:18:58;;;;;;;2.65;0.30;;;;;;;;;;5031230;28;20053;-87
2023/10/15 10:21:32;;;;;;;1.48;0.63;;;;;;;;;;5023072;28;20091;-87
2023/10/15 10:23:58;;;;;;;1.75;0.30;;;;;;;;;;5019618;28;20028;-85
2023/10/15 10:26:27;;;;;;;3.10;0.57;;;;;;;;;;5030233;28;20029;-87
2023/10/15 10:28:56;;;;;;;3.55;0.40;;;;;;;;;;5027563;28;20160;-86
2023/10/15 10:31:22;;;;;;;1.50;0.35;;;;;;;;;;5034258;28;20432;-86
2023/10/15 10:33:49;;;;;;;3.65;0.28;;;;;;;;;;5045476;28;20048;-88
2023/10/15 10:36:22;;;;;;;1.88;0.38;;;;;;;;;;5041182;28;20541;-87
2023/10/15 10:39:15;;;;;;;3.00;0.43;;;;;;;;;;5045060;28;20033;-87
2023/10/15 10:41:46;;;;;;;4.07;0.50;;;13.70;99.90;;;;;;5042727;28;20033;-87
2023/10/15 10:44:33;;;;;;;1.15;0.40;;;13.90;99.90;;;;;;5040164;28;20635;-87
2023/10/15 10:47:16;;;;;;;1.30;0.38;;;;;;;;;;5039324;28;20036;-87
2023/10/15 10:49:47;;;;;;;4.13;1.05;;;;;;;;;;5044065;28;20033;-88
2023/10/15 10:52:17;;;;;;;5.68;0.43;;;;;;;;;;5046534;28;20078;-87
2023/10/15 10:54:43;;;;;;;3.38;0.45;;;;;;;;;;5042726;28;20021;-87
2023/10/15 10:57:12;;;;;;;0.80;0.45;;;;;;;;;;5029558;28;20513;-88
2023/10/15 10:59:39;;;;;;;3.40;0.95;;;;;;;;;;5041513;28;20436;-87
2023/10/15 11:02:06;;;;;;;7.28;0.35;;;;;;;;;;5035489;28;20364;-87
2023/10/15 11:04:32;;;;;;;5.07;0.30;;;;;;;;;;5040921;28;20021;-88
2023/10/15 11:06:58;;;;;;;3.38;0.30;;;;;;;;;;5036898;28;20030;-87
2023/10/15 11:09:25;;;;;;;4.30;0.57;;;;;;;;;;5045252;28;20013;-88
2023/10/15 11:11:55;;;;;;;2.47;0.40;;;;;;;;;;5037473;28;20034;-87
2023/10/15 11:14:26;;;;;;;1.80;0.17;;;;;;;;;;5034296;28;20017;-87
2023/10/15 11:16:53;;;;;;;0.95;0.10;;;;;;;;;;5041048;28;20107;-87
2023/10/15 11:19:23;;;;;;;3.22;0.30;;;;;;;;;;5043197;28;20025;-87
2023/10/15 11:21:51;;;;;;;0.50;0.20;;;;;;;;;;5040022;28;20118;-88
2023/10/15 11:24:18;;;;;;;4.88;0.30;;;;;;;;;;5046157;28;20021;-87
2023/10/15 11:26:44;;;;;;;0.68;0.22;;;;;;;;;;5042333;28;20032;-87
2023/10/15 11:29:11;;;;;;;2.05;0.35;;;;;;;;;;5047189;28;20625;-88
2023/10/15 11:31:38;;;;;;;4.68;0.40;;;;;;;;;;5039850;28;20056;-88
2023/10/15 11:34:05;;;;;;;0.63;0.32;;;;;;;;;;5041702;28;20485;-87
2023/10/15 11:36:35;;;;;;;0.85;0.30;;;;;;;;;;5039078;28;20017;-87
2023/10/15 11:39:08;;;;;;;2.42;0.50;;;;;;;;;;5039141;28;20023;-87
2023/10/15 11:41:35;;;;;;;2.08;0.30;;;;;;;;;;5038286;28;20021;-87
2023/10/15 11:44:04;;;;;;;4.47;1.33;;;;;;;;;;5048298;28;20033;-88
2023/10/15 11:46:30;;;;;;;1.05;0.55;;;;;;;;;;5044055;28;20481;-88
2023/10/15 11:49:00;;;;;;;1.50;0.40;;;;;;;;;;5037260;28;20021;-88
2023/10/15 11:51:27;;;;;;;1.95;0.30;;;;;;;;;;5038049;28;20051;-88
2023/10/15 11:53:53;;;;;;;6.03;0.45;;;;;;;;;;5042482;28;20040;-88
2023/10/15 11:56:20;;;;;;;2.72;0.70;;;;;;;;;;5044545;28;20037;-87
2023/10/15 11:58:48;;;;;;;5.20;0.65;;;;;;;;;;5047089;28;20059;-87
2023/10/15 12:01:15;;;;;;;1.33;0.22;;;;;;;;;;5043529;28;20025;-85
2023/10/15 12:03:43;;;;;;;7.00;0.60;;;;;;;;;;5066351;28;20110;-86
2023/10/15 12:06:09;;;;;;;2.13;0.25;;;;;;;;;;5060536;28;20088;-87
2023/10/15 12:08:36;;;;;;;3.35;0.35;;;;;;;;;;5038574;28;20037;-88
2023/10/15 12:11:04;;;;;;;3.38;1.35;;;;;;;;;;5033174;28;20189;-88
2023/10/15 12:13:30;;;;;;;2.17;0.50;;;;;;;;;;5036320;28;20477;-88
2023/10/15 12:15:56;;;;;;;3.22;0.45;;;;;;;;;;5038083;28;20383;-88
2023/10/15 12:18:22;;;;;;;2.45;0.80;;;;;;;;;;5039683;28;20032;-88
2023/10/15 12:20:48;;;;;;;7.07;0.68;;;;;;;;;;5042493;28;20033;-88
2023/10/15 12:23:14;;;;;;;7.20;0.68;;;;;;;;;;5040099;28;20032;-88
2023/10/15 12:25:40;;;;;;;2.38;0.60;;;;;;;;;;5039331;28;20029;-87
2023/10/15 12:28:07;;;;;;;1.52;0.40;;;;;;;;;;5044093;28;20417;-88
2023/10/15 12:30:34;;;;;;;3.15;1.00;;;;;;;;;;5039692;28;20043;-87
2023/10/15 12:33:00;;;;;;;1.20;0.43;;;;;;;;;;5040832;28;20036;-87
2023/10/15 12:35:29;;;;;;;2.55;0.20;;;;;;;;;;5038258;28;20029;-87
2023/10/15 12:38:02;;;;;;;1.90;0.35;;;;;;;;;;5040198;28;20035;-87
2023/10/15 12:40:32;;;;;;;1.98;0.40;;;;;;;;;;5041124;28;20045;-87
2023/10/15 12:43:07;;;;;;;1.85;0.50;;;;;;;;;;5045721;28;20087;-87
2023/10/15 12:45:34;;;;;;;2.88;0.70;;;;;;;;;;5037814;28;20129;-86
2023/10/15 12:48:01;;;;;;;9.48;1.48;;;;;;;;;;5037998;28;20120;-86
2023/10/15 12:50:27;;;;;;;2.47;0.52;;;;;;;;;;5044348;28;20025;-87
2023/10/15 12:52:56;;;;;;;1.20;0.30;;;;;;;;;;5051984;28;20029;-86
2023/10/15 12:55:25;;;;;;;3.47;1.15;;;;;;;;;;5046241;28;20049;-86
2023/10/15 12:57:51;;;;;;;3.88;0.50;;;;;;;;;;5042122;28;20060;-86
2023/10/15 13:00:18;;;;;;;0.75;0.28;;;;;;;;;;5044761;28;20095;-86
2023/10/15 13:02:54;;;;;;;3.70;0.68;;;;;;;;;;5042500;28;20033;-86
2023/10/15 13:05:21;;;;;;;0.20;0.15;;;;;;;;;;5044219;28;20052;-86
2023/10/15 13:07:47;;;;;;;2.20;0.22;;;;;;;;;;5046865;28;20052;-86
2023/10/15 13:10:13;;;;;;;1.27;0.20;;;;;;;;;;5042769;28;20047;-86
2023/10/15 13:12:42;;;;;;;1.90;0.30;;;;;;;;;;5043658;28;20485;-87
2023/10/15 13:15:08;;;;;;;1.95;0.22;;;;;;;;;;5045842;28;20069;-85
2023/10/15 13:17:35;;;;;;;0.25;0.15;;;;;;;;;;5045166;28;20494;-85
2023/10/15 13:20:05;;;;;;;0.35;0.15;;;;;;;;;;5041974;28;20103;-85
2023/10/15 13:22:32;;;;;;;1.17;0.20;;;;;;;;;;5051010;28;20438;-85
2023/10/15 13:24:58;;;;;;;0.82;0.25;;;;;;;;;;5047198;28;20054;-85
2023/10/15 13:27:25;;;;;;;3.95;0.52;;;;;;;;;;5040445;28;20029;-85
2023/10/15 13:29:51;;;;;;;0.85;0.20;;;;;;;;;;5041454;28;20099;-87
2023/10/15 13:32:17;;;;;;;0.73;0.25;;;;;;;;;;5043818;28;20033;-85
2023/10/15 13:34:43;;;;;;;1.27;0.20;;;;;;;;;;5038244;28;20560;-84
2023/10/15 13:37:12;;;;;;;1.73;0.43;;;;;;;;;;5036191;28;20498;-85
2023/10/15 13:39:39;;;;;;;0.95;0.20;;;;;;;;;;5038053;28;20544;-86
2023/10/15 13:42:05;;;;;;;3.00;0.20;;;;;;;;;;5039176;28;20021;-86
2023/10/15 13:44:32;;;;;;;1.50;0.22;;;;;;;;;;5047813;28;20032;-85
2023/10/15 13:46:58;;;;;;;0.70;0.30;;;;;;;;;;5042616;28;20394;-85
2023/10/15 13:49:24;;;;;;;0.30;0.28;;;;;;;;;;5044237;28;20036;-85
2023/10/15 13:51:50;;;;;;;2.92;1.10;;;;;;;;;;5041767;28;20029;-86
2023/10/15 13:54:16;;;;;;;7.00;2.55;;;;;;;;;;5042763;28;20025;-86
2023/10/15 13:56:42;;;;;;;12.45;4.47;;;;;;;;;;5040632;28;20075;-85
2023/10/15 13:59:20;;;;;;;8.85;0.80;;;;;;;;;;5042905;28;20435;-85
2023/10/15 14:01:46;;;;;;;1.45;0.38;;;;;;;;;;5036350;28;20552;-86
2023/10/15 14:04:13;;;;;;;0.50;0.00;;;;;;;;;;5043838;28;20032;-86
2023/10/15 14:06:39;;;;;;;0.45;0.13;;;;;;;;;;5042326;28;20053;-86
2023/10/15 14:09:10;;;;;;;2.42;0.20;;;;;;;;;;5045213;28;20040;-85
2023/10/15 14:11:37;;;;;;;1.08;0.20;;;;;;;;;;5039963;28;20029;-86
2023/10/15 14:14:04;;;;;;;2.15;0.45;;;;;;;;;;5043597;28;20424;-86
2023/10/15 14:16:31;;;;;;;0.50;0.20;;;;;;;;;;5032012;28;20228;-86
2023/10/15 14:18:58;;;;;;;1.50;0.20;;;;;;;;;;5025928;28;20045;-88
2023/10/15 14:21:24;;;;;;;0.45;0.10;;;;;;;;;;5016416;28;20022;-86
2023/10/15 14:23:50;;;;;;;0.93;0.40;;;;;;;;;;5027111;28;20068;-86
2023/10/15 14:26:17;;;;;;;1.13;0.15;;;;;;;;;;5031208;28;20087;-87
2023/10/15 14:28:43;;;;;;;0.57;0.15;;;;;;;;;;5029541;28;20029;-86
2023/10/15 14:31:09;;;;;;;1.40;0.25;;;;;;;;;;5032862;28;20022;-87
2023/10/15 14:33:37;;;;;;;1.10;0.30;;;;;;;;;;5022124;28;20107;-87
2023/10/15 14:36:04;;;;;;;0.65;0.25;;;;;;;;;;5028557;28;20128;-87
2023/10/15 14:38:30;;;;;;;1.08;0.20;;;;;;;;;;5025138;28;20025;-86
2023/10/15 14:40:56;;;;;;;0.63;0.52;;;;;;;;;;5026274;28;20025;-87
2023/10/15 14:43:23;;;;;;;0.60;0.17;;;;;;;;;;5015943;28;20205;-86